Time;durP1;ratioP1;P1;durP2;ratioP2;P2;SDS_P1;SDS_P2;PMS_P1;PMS_P2;Temp;Humidity;BMP_temperature;BMP_pressure;BME280_temperature;BME280_humidity;BME280_pressure;Samples;Min_cycle;Max_cycle;Signal;HPM_P1;HPM_P2
2021/12/14 00:01:09;;;;;;;21.58;7.93;;;;;;;7.45;93.44;102533.97;5048998;28;20020;-80
2021/12/14 00:03:36;;;;;;;19.33;7.63;;;;;;;7.45;93.42;102536.66;5056260;28;20101;-80
2021/12/14 00:06:03;;;;;;;19.85;8.30;;;;;;;7.44;93.49;102526.91;5049677;28;20021;-80
2021/12/14 00:08:35;;;;;;;18.45;7.45;;;;;;;7.43;93.41;102522.47;5053189;28;20031;-80
2021/12/14 00:16:16;;;;;;;17.45;7.05;;;;;;;7.44;93.67;102519.75;5047745;28;20122;-80
2021/12/14 00:18:42;;;;;;;19.85;8.25;;;;;;;7.42;93.93;102516.22;5052606;28;20464;-80
2021/12/14 00:21:19;;;;;;;20.55;7.90;;;;;;;7.43;93.86;102527.81;5040451;28;20548;-80
2021/12/14 00:26:31;;;;;;;21.77;7.68;;;;;;;7.42;94.00;102518.91;5045566;28;20067;-80
2021/12/14 00:28:56;;;;;;;19.35;7.70;;;;;;;7.40;94.13;102520.75;5047607;28;20025;-80
2021/12/14 00:31:22;;;;;;;19.88;7.68;;;;;;;7.40;93.97;102522.56;5062482;28;20063;-80
2021/12/14 00:33:53;;;;;;;19.67;7.72;;;;;;;7.39;94.30;102526.16;5052387;28;20029;-80
2021/12/14 00:36:18;;;;;;;20.42;6.80;;;;;;;7.39;94.21;102534.19;5044258;28;20051;-80
2021/12/14 00:38:49;;;;;;;19.40;7.53;;;;;;;7.38;94.46;102535.09;5046665;28;20025;-80
2021/12/14 00:41:18;;;;;;;17.55;6.97;;;;;;;7.35;94.38;102538.78;5048088;28;20495;-80
2021/12/14 00:43:44;;;;;;;19.33;8.60;;;;;;;7.38;94.33;102538.69;5045267;28;20033;-80
2021/12/14 00:46:10;;;;;;;19.00;8.00;;;;;;;7.38;94.22;102541.34;5049497;28;20021;-80
2021/12/14 00:48:38;;;;;;;19.70;7.65;;;;;;;7.37;94.23;102552.09;5046513;28;20028;-80
2021/12/14 00:51:05;;;;;;;19.40;6.47;;;;;;;7.37;94.64;102565.47;5057774;28;20694;-80
2021/12/14 00:53:31;;;;;;;20.30;7.22;;;;;;;7.39;94.41;102564.47;5044667;28;20024;-80
2021/12/14 00:56:00;;;;;;;19.88;8.07;;;;;;;7.39;94.48;102572.50;5049608;28;20032;-80
2021/12/14 00:58:26;;;;;;;19.75;7.43;;;;;;;7.39;94.32;102571.63;5042651;28;20036;-80
2021/12/14 01:01:01;;;;;;;18.80;7.97;;;;;;;7.39;94.41;102567.16;5052178;28;20381;-80
2021/12/14 01:03:30;;;;;;;20.33;8.25;;;;;;;7.39;94.17;102574.31;5053641;28;20033;-80
2021/12/14 01:05:58;;;;;;;19.52;7.32;;;;;;;7.40;94.33;102570.72;5049256;28;20071;-80
2021/12/14 01:08:27;;;;;;;19.85;8.05;;;;;;;7.39;93.94;102563.63;5045730;28;20079;-80
2021/12/14 01:11:01;;;;;;;20.25;8.40;;;;;;;7.38;93.71;102553.81;5050744;28;20552;-80
2021/12/14 01:13:29;;;;;;;20.70;8.52;;;;;;;7.37;94.11;102555.63;5059714;28;20024;-81
2021/12/14 01:16:19;;;;;;;22.23;8.18;;;;;;;7.38;93.94;102541.34;5047025;28;20025;-81
2021/12/14 01:19:01;;;;;;;20.10;8.15;;;;;;;7.34;94.02;102545.91;5047917;28;20449;-81
2021/12/14 01:24:19;;;;;;;20.13;7.72;;;;;;;7.33;94.08;102554.84;5062584;28;20131;-81
2021/12/14 01:26:45;;;;;;;21.08;7.80;;;;;;;7.35;94.14;102555.69;5043662;28;20465;-80
2021/12/14 01:29:11;;;;;;;18.70;6.97;;;;;;;7.34;93.79;102545.03;5055148;28;20090;-80
2021/12/14 01:31:41;;;;;;;19.40;8.25;;;;;;;7.34;93.88;102532.53;5054950;28;20033;-80
2021/12/14 01:34:13;;;;;;;19.30;6.90;;;;;;;7.35;93.95;102530.75;5046976;28;20056;-80
2021/12/14 01:36:47;;;;;;;17.85;7.57;;;;;;;7.32;93.86;102525.47;5048461;28;20491;-80
2021/12/14 01:42:10;;;;;;;17.73;7.22;;;;;;;7.34;93.75;102518.28;5055367;28;20468;-80
2021/12/14 01:45:00;;;;;;;18.75;7.10;;;;;;;7.31;93.72;102529.97;5056632;28;20078;-80
2021/12/14 01:47:36;;;;;;;17.23;6.00;;;;;;;7.30;93.34;102522.84;5044167;28;20040;-80
2021/12/14 01:50:05;;;;;;;19.65;7.28;;;;;;;7.28;93.47;102521.19;5053041;28;20027;-80
2021/12/14 01:52:33;;;;;;;19.73;6.63;;;;;;;7.25;93.63;102524.81;5051777;28;20025;-80
2021/12/14 01:55:05;;;;;;;17.33;6.38;;;;;;;7.26;93.23;102531.03;5056034;28;20146;-80
2021/12/14 01:57:32;;;;;;;15.43;5.82;;;;;;;7.26;93.17;102515.88;5048710;28;20040;-80
2021/12/14 01:59:58;;;;;;;14.98;5.47;;;;;;;7.24;92.87;102509.69;5049099;28;20419;-80
2021/12/14 02:02:33;;;;;;;17.45;6.00;;;;;;;7.25;92.79;102507.91;5053294;28;20032;-80
2021/12/14 02:05:07;;;;;;;17.92;6.18;;;;;;;7.26;92.89;102509.63;5056711;28;20039;-80
2021/12/14 02:07:33;;;;;;;16.05;5.70;;;;;;;7.25;92.78;102495.41;5045309;28;20067;-80
2021/12/14 02:10:05;;;;;;;14.77;5.47;;;;;;;7.24;92.91;102492.78;5050491;28;20024;-80
2021/12/14 02:12:31;;;;;;;17.42;5.55;;;;;;;7.22;92.93;102483.91;5046090;28;20028;-80
2021/12/14 02:15:11;;;;;;;17.90;6.20;;;;;;;7.20;92.53;102500.00;5049076;28;20030;-80
2021/12/14 02:17:39;;;;;;;16.80;5.47;;;;;;;7.18;92.38;102492.03;5050510;28;20425;-80
2021/12/14 02:20:07;;;;;;;15.70;4.95;;;;;;;7.19;92.65;102498.28;5049372;28;20036;-80
2021/12/14 02:22:33;;;;;;;14.50;4.68;;;;;;;7.19;92.15;102492.94;5051345;28;20504;-80
2021/12/14 02:24:58;;;;;;;15.00;5.05;;;;;;;7.19;92.19;102508.97;5051907;28;20105;-80
2021/12/14 02:27:24;;;;;;;14.52;4.75;;;;;;;7.16;91.63;102493.03;5048126;28;20116;-80
2021/12/14 02:29:50;;;;;;;15.23;5.57;;;;;;;7.18;91.83;102493.84;5050564;28;20033;-80
2021/12/14 02:32:19;;;;;;;15.95;5.03;;;;;;;7.17;92.04;102492.09;5046819;28;20366;-80
2021/12/14 02:34:52;;;;;;;14.88;5.57;;;;;;;7.18;92.36;102502.72;5047581;28;20124;-80
2021/12/14 02:37:22;;;;;;;15.73;4.78;;;;;;;7.17;91.91;102495.66;5049622;28;20021;-80
2021/12/14 02:40:01;;;;;;;14.27;4.78;;;;;;;7.20;91.83;102516.06;5060987;28;20032;-80
2021/12/14 02:42:27;;;;;;;16.48;5.43;;;;;;;7.16;91.74;102515.28;5055599;28;20038;-80
2021/12/14 02:44:54;;;;;;;14.55;5.43;;;;;;;7.17;91.37;102518.84;5049756;28;20059;-80
2021/12/14 02:47:21;;;;;;;15.27;4.95;;;;;;;7.16;91.79;102507.28;5046172;28;20029;-80
2021/12/14 02:49:51;;;;;;;15.40;5.45;;;;;;;7.15;92.16;102512.66;5058647;28;20491;-80
2021/12/14 02:52:27;;;;;;;16.50;5.28;;;;;;;7.19;91.91;102519.69;5047916;28;20515;-80
2021/12/14 02:54:56;;;;;;;17.33;5.22;;;;;;;7.15;92.11;102510.88;5052642;28;20025;-80
2021/12/14 02:57:26;;;;;;;16.75;5.85;;;;;;;7.14;91.93;102501.06;5056958;28;20111;-80
2021/12/14 02:59:52;;;;;;;;;;;;;;;7.20;91.97;102489.31;5047798;28;20033;-80
2021/12/14 03:02:22;;;;;;;13.30;4.03;;;;;;;7.14;91.43;102481.50;5063827;28;19954;-80
2021/12/14 03:04:49;;;;;;;;;;;;;;;7.19;91.94;102479.56;5048674;28;20401;-81
2021/12/14 03:07:16;;;;;;;17.92;5.25;;;;;;;7.14;91.60;102489.53;5049386;28;19916;-80
2021/12/14 03:12:39;;;;;;;18.08;5.82;;;;;;;7.12;91.45;102480.69;5050512;28;20060;-80
2021/12/14 03:15:14;;;;;;;15.57;4.97;;;;;;;7.10;91.35;102474.50;5047109;28;20041;-80
2021/12/14 03:17:43;;;;;;;16.75;5.47;;;;;;;7.08;91.47;102469.19;5032964;28;20408;-80
2021/12/14 03:20:13;;;;;;;19.13;6.38;;;;;;;7.08;91.42;102463.00;5050593;28;20120;-80
2021/12/14 03:22:45;;;;;;;17.85;5.55;;;;;;;7.07;91.61;102454.09;5063873;28;20362;-80
2021/12/14 03:25:13;;;;;;;16.65;5.55;;;;;;;7.06;91.80;102454.13;5049598;28;20041;-80
2021/12/14 03:27:40;;;;;;;15.40;5.50;;;;;;;7.04;91.72;102461.34;5043505;28;20025;-80
2021/12/14 03:30:18;;;;;;;18.27;6.32;;;;;;;7.05;91.79;102458.59;5050830;28;20399;-81
2021/12/14 03:32:44;;;;;;;17.92;5.85;;;;;;;7.04;91.53;102456.00;5050652;28;20493;-80
2021/12/14 03:35:09;;;;;;;16.80;5.95;;;;;;;7.04;91.83;102464.00;5042686;28;20040;-80
2021/12/14 03:37:34;;;;;;;19.67;6.45;;;;;;;7.03;91.80;102467.59;5051204;28;20035;-80
2021/12/14 03:40:02;;;;;;;18.13;6.50;;;;;;;7.01;91.87;102454.28;5053105;28;20105;-80
2021/12/14 03:42:36;;;;;;;19.95;7.40;;;;;;;6.98;92.14;102449.94;5047942;28;20071;-80
2021/12/14 03:45:09;;;;;;;20.40;6.85;;;;;;;6.99;92.51;102459.69;5051158;28;20056;-80
2021/12/14 03:47:40;;;;;;;19.88;7.53;;;;;;;7.00;92.27;102458.75;5046621;28;20519;-80
2021/12/14 03:50:11;;;;;;;20.92;7.53;;;;;;;6.98;92.23;102471.31;5042705;28;20029;-80
2021/12/14 03:52:39;;;;;;;20.73;7.68;;;;;;;6.99;92.47;102480.19;5045634;28;20033;-80
2021/12/14 03:55:13;;;;;;;22.40;7.95;;;;;;;6.98;92.45;102492.69;5041853;28;20029;-80
2021/12/14 03:57:39;;;;;;;22.40;8.55;;;;;;;6.97;92.50;102503.44;5042275;28;20430;-80
2021/12/14 04:00:09;;;;;;;22.17;7.55;;;;;;;6.99;92.48;102505.13;5046831;28;20025;-80
2021/12/14 04:02:34;;;;;;;;;;;;;;;7.05;92.42;102509.41;5046134;28;20072;-80
2021/12/14 04:05:05;;;;;;;21.70;8.05;;;;;;;7.02;92.46;102514.84;5046454;28;20280;-80
2021/12/14 04:07:34;;;;;;;20.52;7.82;;;;;;;7.02;92.58;102519.34;5049283;28;20031;-80
2021/12/14 04:10:00;;;;;;;23.50;9.10;;;;;;;7.03;92.53;102518.38;5045781;28;20049;-80
2021/12/14 04:12:26;;;;;;;20.40;7.97;;;;;;;7.04;92.59;102515.66;5052463;28;20039;-80
2021/12/14 04:14:54;;;;;;;20.95;8.23;;;;;;;7.05;92.60;102516.56;5047987;28;20029;-80
2021/12/14 04:17:22;;;;;;;20.95;8.85;;;;;;;7.04;92.69;102514.81;5056378;28;20480;-80
2021/12/14 04:19:48;;;;;;;20.67;8.93;;;;;;;7.04;92.53;102509.47;5056245;28;20044;-80
2021/12/14 04:22:18;;;;;;;20.80;8.40;;;;;;;7.03;92.61;102494.31;5043102;28;20210;-80
2021/12/14 04:24:46;;;;;;;23.00;9.43;;;;;;;7.02;92.43;102505.97;5056158;28;20469;-80
2021/12/14 04:27:17;;;;;;;23.90;9.55;;;;;;;7.02;92.43;102514.84;5053300;28;20060;-80
2021/12/14 04:29:43;;;;;;;30.17;9.85;;;;;;;7.04;92.53;102517.47;5048252;28;20289;-80
2021/12/14 04:32:13;;;;;;;24.45;9.70;;;;;;;7.02;92.57;102517.53;5052930;28;20453;-80
2021/12/14 04:34:39;;;;;;;;;;;;;;;7.10;92.63;102515.50;5049821;28;20061;-80
2021/12/14 04:37:05;;;;;;;23.23;8.80;;;;;;;7.02;92.42;102506.84;5043296;28;19952;-80
2021/12/14 04:53:35;;;;;;;25.08;11.07;;;;;;;7.00;92.77;102484.63;5050142;28;20082;-80
2021/12/14 04:56:03;;;;;;;25.23;10.18;;;;;;;6.99;92.43;102483.75;5042545;28;20179;-80
2021/12/14 04:58:33;;;;;;;25.60;10.27;;;;;;;6.97;92.49;102487.41;5067926;28;20027;-80
2021/12/14 05:01:00;;;;;;;24.45;9.60;;;;;;;6.97;92.81;102484.75;5042376;28;20070;-80
2021/12/14 05:03:38;;;;;;;22.83;9.45;;;;;;;6.95;92.80;102490.09;5048621;28;20033;-80
2021/12/14 05:06:17;;;;;;;23.60;9.95;;;;;;;6.95;92.70;102492.78;5042730;28;20074;-80
2021/12/14 05:09:27;;;;;;;21.57;8.53;;;;;;;6.96;92.51;102485.66;5044015;28;20124;-80
2021/12/14 05:11:57;;;;;;;;;;;;;;;7.04;92.58;102491.59;5044736;28;20827;-80
2021/12/14 05:14:25;;;;;;;23.15;9.02;;;;;;;6.98;92.88;102484.69;5043576;28;19921;-80
2021/12/14 05:17:00;;;;;;;22.05;9.00;;;;;;;6.97;92.84;102477.59;5056754;28;20063;-80
2021/12/14 05:19:27;;;;;;;23.42;11.25;;;;;;;6.97;92.47;102474.03;5051745;28;20112;-80
2021/12/14 05:21:58;;;;;;;23.35;10.43;;;;;;;6.98;92.50;102473.09;5056880;28;20509;-80
2021/12/14 05:24:24;;;;;;;23.02;10.18;;;;;;;6.95;92.76;102468.72;5049274;28;20032;-80
2021/12/14 05:26:59;;;;;;;23.92;11.02;;;;;;;6.96;92.78;102475.81;5046152;28;20094;-80
2021/12/14 05:29:27;;;;;;;25.15;10.57;;;;;;;6.96;92.64;102478.50;5048545;28;20115;-80
2021/12/14 05:31:53;;;;;;;24.48;10.25;;;;;;;6.93;92.65;102481.28;5048860;28;20488;-80
2021/12/14 05:34:22;;;;;;;24.52;10.50;;;;;;;6.94;92.61;102475.00;5059711;28;20047;-80
2021/12/14 05:36:47;;;;;;;24.75;10.32;;;;;;;6.95;93.00;102483.88;5053218;28;20111;-80
2021/12/14 05:44:34;;;;;;;25.50;12.55;;;;;;;6.91;92.47;102467.09;5043012;28;20040;-80
2021/12/14 05:47:03;;;;;;;24.48;11.35;;;;;;;6.93;92.69;102481.28;5044879;28;20047;-80
2021/12/14 05:49:30;;;;;;;25.20;11.55;;;;;;;6.94;92.59;102488.38;5044584;28;20047;-80
2021/12/14 05:51:59;;;;;;;25.58;12.80;;;;;;;6.95;92.48;102486.56;5046974;28;20107;-80
2021/12/14 05:54:29;;;;;;;28.30;11.77;;;;;;;6.93;92.47;102483.06;5046358;28;20106;-80
2021/12/14 05:56:58;;;;;;;23.98;10.82;;;;;;;6.93;92.32;102481.28;5043993;28;20295;-80
2021/12/14 05:59:27;;;;;;;26.70;12.25;;;;;;;6.94;92.53;102488.38;5046599;28;20033;-80
2021/12/14 06:01:53;;;;;;;28.27;12.80;;;;;;;6.92;92.50;102490.19;5046190;28;20107;-80
2021/12/14 06:04:18;;;;;;;26.80;11.75;;;;;;;6.94;92.60;102506.19;5051999;28;20035;-80
2021/12/14 06:06:48;;;;;;;26.10;12.07;;;;;;;6.95;92.42;102499.94;5045985;28;20534;-80
2021/12/14 06:09:19;;;;;;;24.73;11.50;;;;;;;6.93;92.68;102489.28;5059560;28;20033;-80
2021/12/14 06:11:47;;;;;;;26.23;12.70;;;;;;;6.92;92.51;102503.56;5044402;28;20052;-80
2021/12/14 06:14:17;;;;;;;28.40;12.90;;;;;;;6.92;92.71;102510.72;5051951;28;20063;-80
2021/12/14 06:16:43;;;;;;;26.98;13.63;;;;;;;6.93;92.62;102508.00;5050082;28;20021;-80
2021/12/14 06:19:16;;;;;;;25.80;12.93;;;;;;;6.92;92.82;102511.59;5058218;28;20032;-80
2021/12/14 06:21:43;;;;;;;24.48;11.23;;;;;;;6.94;92.63;102514.22;5043678;28;20124;-80
2021/12/14 06:24:10;;;;;;;27.75;12.98;;;;;;;6.94;92.78;102511.53;5055454;28;20040;-80
2021/12/14 06:26:47;;;;;;;26.67;12.57;;;;;;;6.94;92.57;102512.44;5042849;28;20021;-80
2021/12/14 06:29:18;;;;;;;24.85;12.63;;;;;;;6.93;92.71;102520.50;5051929;28;20473;-80
2021/12/14 06:31:44;;;;;;;25.15;12.27;;;;;;;6.92;92.72;102508.03;5045179;28;20059;-80
2021/12/14 06:34:16;;;;;;;27.77;14.13;;;;;;;6.92;92.85;102511.59;5059044;28;20025;-80
2021/12/14 06:37:03;;;;;;;27.20;13.65;;;;;;;6.92;92.99;102508.03;5051493;28;20441;-80
2021/12/14 06:39:28;;;;;;;28.40;12.75;;;;;;;6.89;92.90;102511.69;5047533;28;20063;-80
2021/12/14 06:42:06;;;;;;;28.15;13.00;;;;;;;6.91;92.86;102515.19;5047744;28;21026;-80
2021/12/14 06:44:32;;;;;;;29.02;13.65;;;;;;;6.89;93.00;102509.00;5049420;28;20028;-80
2021/12/14 06:46:57;;;;;;;28.48;13.80;;;;;;;6.89;92.91;102513.50;5047475;28;20029;-80
2021/12/14 06:49:23;;;;;;;30.85;13.82;;;;;;;6.89;92.94;102522.38;5052020;28;20499;-80
2021/12/14 06:51:56;;;;;;;28.90;14.20;;;;;;;6.90;92.92;102524.13;5045979;28;20055;-80
2021/12/14 06:54:25;;;;;;;32.47;15.20;;;;;;;6.89;93.19;102522.38;5045426;28;20048;-80
2021/12/14 06:56:54;;;;;;;29.10;15.45;;;;;;;6.92;92.85;102534.78;5050555;28;20497;-80
2021/12/14 06:59:20;;;;;;;27.92;14.30;;;;;;;6.92;93.02;102540.97;5056021;28;20024;-80
2021/12/14 07:01:53;;;;;;;29.42;15.50;;;;;;;6.92;92.89;102540.97;5042854;28;20048;-80
2021/12/14 07:04:22;;;;;;;27.45;13.75;;;;;;;6.89;92.80;102535.75;5041537;28;20025;-80
2021/12/14 07:06:59;;;;;;;30.10;15.00;;;;;;;6.88;92.64;102538.47;5049889;28;20071;-80
2021/12/14 07:09:33;;;;;;;27.45;13.73;;;;;;;6.90;92.81;102547.31;5044283;28;20132;-80
2021/12/14 07:12:03;;;;;;;29.83;14.70;;;;;;;6.90;92.92;102548.19;5051185;28;20416;-81
2021/12/14 07:14:31;;;;;;;28.40;14.63;;;;;;;6.90;92.95;102542.84;5053967;28;20092;-80
2021/12/14 07:17:01;;;;;;;32.40;15.30;;;;;;;6.90;92.88;102537.50;5054136;28;20164;-80
2021/12/14 07:19:45;;;;;;;31.27;14.95;;;;;;;6.92;93.09;102549.00;5049018;28;20037;-80
2021/12/14 07:22:22;;;;;;;30.17;14.82;;;;;;;6.93;92.98;102555.25;5043888;28;20398;-80
2021/12/14 07:24:58;;;;;;;29.60;14.93;;;;;;;6.91;92.97;102562.41;5043661;28;20587;-80
2021/12/14 07:27:32;;;;;;;30.40;15.43;;;;;;;6.91;92.76;102567.75;5052312;28;20055;-80
2021/12/14 07:30:09;;;;;;;27.42;14.38;;;;;;;6.91;93.08;102573.09;5052105;28;20029;-80
2021/12/14 07:32:50;;;;;;;29.35;14.23;;;;;;;6.89;93.00;102572.28;5047417;28;20373;-80
2021/12/14 07:35:26;;;;;;;29.92;15.63;;;;;;;6.87;92.85;102569.66;5056999;28;20036;-80
2021/12/14 07:37:53;;;;;;;30.58;14.70;;;;;;;6.87;92.85;102572.34;5051654;28;20032;-80
2021/12/14 07:40:18;;;;;;;31.73;16.90;;;;;;;6.88;93.05;102573.19;5053203;28;20074;-80
2021/12/14 07:42:44;;;;;;;29.40;16.42;;;;;;;6.88;93.17;102574.09;5057541;28;20115;-80
2021/12/14 07:45:11;;;;;;;32.38;16.45;;;;;;;6.89;93.39;102575.81;5051293;28;20028;-80
2021/12/14 07:47:48;;;;;;;28.85;15.35;;;;;;;6.89;93.20;102574.97;5058149;28;20028;-80
2021/12/14 07:50:13;;;;;;;29.85;16.25;;;;;;;6.92;93.12;102577.53;5051469;28;20068;-81
2021/12/14 07:52:38;;;;;;;31.15;15.75;;;;;;;6.94;92.92;102592.63;5050954;28;20106;-81
2021/12/14 07:55:17;;;;;;;30.27;17.20;;;;;;;6.94;93.07;102595.28;5047419;28;20451;-81
2021/12/14 07:57:45;;;;;;;31.20;15.65;;;;;;;6.94;93.07;102600.63;5048750;28;20473;-81
2021/12/14 08:00:16;;;;;;;28.83;15.80;;;;;;;6.93;93.10;102598.88;5052655;28;20033;-81
2021/12/14 08:02:48;;;;;;;32.03;17.33;;;;;;;6.95;92.83;102607.72;5045071;28;20024;-80
2021/12/14 08:05:36;;;;;;;34.65;16.92;;;;;;;6.97;92.82;102611.25;5057986;28;20033;-80
2021/12/14 08:08:18;;;;;;;32.03;16.83;;;;;;;6.98;92.99;102613.00;5041196;28;20017;-80
2021/12/14 08:10:58;;;;;;;32.00;15.90;;;;;;;6.96;93.12;102611.28;5054549;28;20026;-80
2021/12/14 08:13:25;;;;;;;28.25;16.40;;;;;;;6.96;92.92;102612.16;5056505;28;20028;-80
2021/12/14 08:16:08;;;;;;;31.33;16.63;;;;;;;6.97;93.10;102611.25;5055444;28;20057;-80
2021/12/14 08:18:37;;;;;;;31.70;16.70;;;;;;;6.96;92.93;102609.47;5045590;28;20029;-80
2021/12/14 08:21:12;;;;;;;31.48;17.05;;;;;;;6.95;93.25;102609.53;5045085;28;20075;-80
2021/12/14 08:23:50;;;;;;;31.10;15.05;;;;;;;6.97;92.97;102611.25;5048481;28;20025;-80
2021/12/14 08:26:30;;;;;;;36.08;18.55;;;;;;;6.97;92.99;102611.25;5050010;28;20050;-80
2021/12/14 08:29:16;;;;;;;31.40;16.98;;;;;;;6.98;92.95;102613.00;5051126;28;20441;-80
2021/12/14 08:31:47;;;;;;;30.75;18.02;;;;;;;6.98;93.24;102613.00;5045118;28;20025;-80
2021/12/14 08:34:22;;;;;;;29.98;17.27;;;;;;;7.00;92.72;102604.94;5056901;28;20031;-80
2021/12/14 08:37:08;;;;;;;31.35;18.00;;;;;;;7.02;93.14;102615.56;5050140;28;20108;-80
2021/12/14 08:39:42;;;;;;;32.83;16.60;;;;;;;7.03;92.84;102611.97;5050595;28;20511;-80
2021/12/14 08:42:32;;;;;;;32.30;18.50;;;;;;;7.03;92.81;102619.97;5045202;28;20039;-80
2021/12/14 08:45:00;;;;;;;32.17;16.63;;;;;;;7.02;92.92;102619.13;5053787;28;20043;-80
2021/12/14 08:47:35;;;;;;;32.55;17.83;;;;;;;7.04;93.06;102622.59;5056615;28;20020;-80
2021/12/14 08:50:10;;;;;;;34.30;16.90;;;;;;;7.07;93.02;102621.66;5045561;28;20025;-80
2021/12/14 08:52:35;;;;;;;32.83;17.65;;;;;;;7.08;92.53;102612.72;5050481;28;20084;-80
2021/12/14 08:55:04;;;;;;;35.30;17.48;;;;;;;7.08;92.58;102618.91;5044497;28;20110;-80
2021/12/14 08:57:31;;;;;;;31.88;16.63;;;;;;;7.12;92.75;102625.94;5050495;28;20033;-80
2021/12/14 09:00:02;;;;;;;33.88;18.27;;;;;;;7.15;92.78;102623.16;5058662;28;20029;-80
2021/12/14 09:02:30;;;;;;;35.45;18.27;;;;;;;7.17;92.69;102633.81;5051376;28;20028;-80
2021/12/14 09:05:12;;;;;;;34.40;16.95;;;;;;;7.22;92.80;102631.00;5058387;28;20017;-80
2021/12/14 09:07:37;;;;;;;35.10;18.70;;;;;;;7.24;92.42;102635.38;5047986;28;20092;-80
2021/12/14 09:10:09;;;;;;;35.10;17.48;;;;;;;7.27;92.26;102634.41;5049616;28;20377;-80
2021/12/14 09:12:39;;;;;;;32.45;18.08;;;;;;;7.30;92.60;102631.66;5055846;28;20090;-80
2021/12/14 09:15:12;;;;;;;33.88;17.92;;;;;;;7.33;92.53;102632.41;5042857;28;20025;-80
2021/12/14 09:17:37;;;;;;;34.35;19.50;;;;;;;7.36;92.30;102636.78;5054945;28;20063;-80
2021/12/14 09:20:11;;;;;;;32.95;17.40;;;;;;;7.40;92.28;102634.91;5049598;28;20092;-80
2021/12/14 09:22:41;;;;;;;36.33;18.88;;;;;;;7.42;91.97;102635.75;5052707;28;20048;-80
2021/12/14 09:25:08;;;;;;;;;;;;;;;7.49;92.33;102640.84;5046716;28;20028;-80
2021/12/14 09:27:34;;;;;;;37.42;19.13;;;;;;;7.48;92.09;102646.25;5052831;28;19909;-80
2021/12/14 09:30:00;;;;;;;32.70;17.45;;;;;;;7.50;91.80;102647.09;5050471;28;20051;-80
2021/12/14 09:32:28;;;;;;;34.28;19.52;;;;;;;7.51;91.92;102652.38;5054520;28;20116;-81
2021/12/14 09:34:59;;;;;;;35.88;18.75;;;;;;;7.52;92.15;102639.88;5049173;28;20496;-81
2021/12/14 09:37:27;;;;;;;35.47;20.17;;;;;;;7.55;91.75;102644.25;5050688;28;20060;-80
2021/12/14 09:39:56;;;;;;;34.55;20.35;;;;;;;7.58;91.51;102644.16;5057797;28;20116;-80
2021/12/14 09:42:26;;;;;;;34.65;19.35;;;;;;;7.60;91.71;102643.19;5063371;28;20032;-80
2021/12/14 09:44:54;;;;;;;35.75;21.00;;;;;;;7.60;91.58;102643.19;5061458;28;20027;-80
2021/12/14 09:47:26;;;;;;;35.00;20.75;;;;;;;7.59;91.55;102636.06;5054495;28;20028;-80
2021/12/14 09:49:53;;;;;;;34.40;19.55;;;;;;;7.58;91.28;102637.00;5045829;28;20025;-80
2021/12/14 09:52:23;;;;;;;36.90;20.90;;;;;;;7.58;91.77;102631.63;5058488;28;20039;-80
2021/12/14 09:54:51;;;;;;;36.08;20.52;;;;;;;7.56;91.41;102621.94;5058741;28;20131;-80
2021/12/14 09:57:19;;;;;;;34.20;18.90;;;;;;;7.55;91.63;102615.69;5048141;28;20043;-81
2021/12/14 09:59:44;;;;;;;35.65;20.38;;;;;;;7.57;91.88;102619.22;5049924;28;20036;-80
2021/12/14 10:02:15;;;;;;;34.45;20.02;;;;;;;7.60;91.77;102627.13;5051954;28;20025;-80
2021/12/14 10:04:57;;;;;;;38.83;21.20;;;;;;;7.65;91.89;102619.81;5057944;28;20099;-80
2021/12/14 10:07:24;;;;;;;36.58;21.40;;;;;;;7.65;91.56;102616.28;5050583;28;20082;-81
2021/12/14 10:09:53;;;;;;;34.65;19.15;;;;;;;7.68;91.56;102618.84;5042831;28;20108;-81
2021/12/14 10:14:53;;;;;;;41.15;20.73;;;;;;;7.73;91.45;102629.41;5051615;28;20233;-80
2021/12/14 10:17:22;;;;;;;34.40;19.33;;;;;;;7.76;91.32;102634.66;5047022;28;20072;-80
2021/12/14 10:19:48;;;;;;;35.53;19.73;;;;;;;7.79;91.08;102626.50;5045345;28;20461;-80
2021/12/14 10:22:23;;;;;;;33.60;18.85;;;;;;;7.83;91.43;102639.78;5043915;28;20303;-80
2021/12/14 10:24:51;;;;;;;38.10;20.08;;;;;;;7.83;91.31;102629.06;5051469;28;20104;-80
2021/12/14 10:27:18;;;;;;;35.17;18.60;;;;;;;7.88;90.94;102635.13;5049343;28;20102;-80
2021/12/14 10:29:44;;;;;;;37.53;21.63;;;;;;;7.90;91.39;102643.09;5043914;28;20033;-80
2021/12/14 10:32:17;;;;;;;36.47;21.08;;;;;;;7.93;91.19;102640.31;5061783;28;20359;-80
2021/12/14 10:34:47;;;;;;;33.28;19.15;;;;;;;7.95;91.10;102633.13;5042800;28;20029;-80
2021/12/14 10:37:23;;;;;;;34.55;20.35;;;;;;;7.98;90.73;102632.13;5049591;28;20116;-80
2021/12/14 10:45:24;;;;;;;38.03;21.65;;;;;;;8.02;90.16;102637.34;5052504;28;20028;-80
2021/12/14 10:47:50;;;;;;;33.75;19.75;;;;;;;8.05;90.92;102639.94;5047501;28;20035;-80
2021/12/14 10:50:21;;;;;;;36.05;19.77;;;;;;;8.11;91.26;102640.63;5048649;28;20033;-80
2021/12/14 10:52:47;;;;;;;40.03;20.83;;;;;;;8.13;90.63;102636.13;5051543;28;20094;-80
2021/12/14 10:55:27;;;;;;;34.65;19.63;;;;;;;8.13;90.25;102633.44;5060848;28;20039;-80
2021/12/14 10:57:53;;;;;;;37.35;21.17;;;;;;;8.15;90.58;102636.94;5049138;28;20516;-80
2021/12/14 11:00:30;;;;;;;39.35;21.27;;;;;;;8.18;90.91;102631.47;5044569;28;20466;-80
2021/12/14 11:03:10;;;;;;;37.38;21.08;;;;;;;8.20;90.51;102632.31;5055635;28;20519;-80
2021/12/14 11:05:38;;;;;;;37.63;20.40;;;;;;;8.18;90.25;102629.66;5044215;28;20025;-80
2021/12/14 11:08:06;;;;;;;42.53;21.02;;;;;;;8.21;90.14;102628.66;5043530;28;20359;-80
2021/12/14 11:10:40;;;;;;;37.20;20.77;;;;;;;8.24;90.35;102628.56;5050230;28;20117;-80
2021/12/14 11:13:10;;;;;;;37.90;20.58;;;;;;;8.24;90.08;102625.88;5050289;28;20388;-80
2021/12/14 11:15:49;;;;;;;40.75;22.10;;;;;;;8.25;90.59;102626.78;5049257;28;20021;-80
2021/12/14 11:18:22;;;;;;;38.97;21.02;;;;;;;8.28;90.60;102613.28;5051374;28;20044;-80
2021/12/14 11:20:53;;;;;;;39.42;21.38;;;;;;;8.32;90.66;102610.44;5049788;28;20033;-80
2021/12/14 11:23:23;;;;;;;39.53;20.83;;;;;;;8.38;90.54;102602.16;5057894;28;20091;-81
2021/12/14 11:25:49;;;;;;;36.85;21.77;;;;;;;8.42;90.46;102604.72;5058293;28;20029;-81
2021/12/14 11:28:23;;;;;;;37.60;21.55;;;;;;;8.45;90.04;102600.19;5059046;28;20036;-81
2021/12/14 11:30:56;;;;;;;37.92;21.90;;;;;;;8.47;89.79;102602.81;5049114;28;20040;-80
2021/12/14 11:33:29;;;;;;;36.53;22.40;;;;;;;8.48;90.13;102593.84;5053547;28;20021;-81
2021/12/14 11:36:04;;;;;;;38.17;21.55;;;;;;;8.51;90.00;102591.06;5047804;28;20044;-81
2021/12/14 11:38:45;;;;;;;39.72;20.00;;;;;;;8.53;89.87;102594.53;5046294;28;20047;-81
2021/12/14 11:41:40;;;;;;;38.58;23.40;;;;;;;8.56;89.88;102594.41;5048665;28;20024;-81
2021/12/14 11:44:09;;;;;;;43.22;23.35;;;;;;;8.56;89.59;102594.41;5052687;28;20020;-80
2021/12/14 11:46:51;;;;;;;37.30;19.92;;;;;;;8.59;89.76;102590.75;5048155;28;20099;-80
2021/12/14 11:49:17;;;;;;;36.67;22.00;;;;;;;8.62;89.95;102590.63;5044959;28;20101;-80
2021/12/14 11:51:43;;;;;;;40.15;23.08;;;;;;;8.63;89.64;102593.25;5050321;28;20025;-80
2021/12/14 11:54:09;;;;;;;42.13;21.33;;;;;;;8.61;89.45;102592.47;5047826;28;20098;-80
2021/12/14 11:56:35;;;;;;;41.17;24.35;;;;;;;8.60;89.58;102593.38;5050942;28;20427;-80
2021/12/14 11:59:05;;;;;;;40.55;23.65;;;;;;;8.61;89.16;102595.13;5041148;28;20032;-80
2021/12/14 12:01:44;;;;;;;38.90;23.27;;;;;;;8.62;89.30;102602.22;5041289;28;20022;-80
2021/12/14 12:04:42;;;;;;;38.80;22.02;;;;;;;8.64;89.73;102600.38;5043602;28;20309;-80
2021/12/14 12:09:41;;;;;;;39.03;22.33;;;;;;;8.63;89.25;102598.63;5043803;28;21290;-80
2021/12/14 12:12:24;;;;;;;40.65;23.52;;;;;;;8.65;89.74;102595.88;5046276;28;20556;-80
2021/12/14 12:14:54;;;;;;;44.92;24.75;;;;;;;8.64;89.64;102604.84;5051271;28;20016;-81
2021/12/14 12:17:28;;;;;;;40.60;23.77;;;;;;;8.62;89.24;102596.88;5052550;28;20032;-81
2021/12/14 12:20:28;;;;;;;39.28;23.20;;;;;;;8.63;89.97;102595.06;5050229;28;20052;-81
2021/12/14 12:23:01;;;;;;;38.88;24.67;;;;;;;8.65;89.60;102595.88;5050054;28;20040;-81
2021/12/14 12:25:34;;;;;;;40.28;23.58;;;;;;;8.63;90.36;102598.63;5046580;28;20036;-81